Latest Weather Observations for Coffs Harbour

IDN60801

Issued at 5:35 pm EST Wednesday 23 July 2014 (issued every 30 minutes, with the page automatically refreshed every 10 minutes)

About weather observations | Map of weather stations | Latest weather observations for NSW | Other Formats
Station Details ID: 059040 Name: COFFS HARBOUR MO Lat: -30.31 Lon: 153.12 Height: 5.0 m
Data from the previous 72 hours. | See also: Recent months at Coffs Harbour
Date/Time
EST
Temp
°C
App
Temp
°C
Dew
Point
Rel
Hum
%
Delta-T
°C
Wind Press
QNH
hPa
Press
MSL
hPa
Rain
since 9 am
mm
Dir
 
Spd
km/h
Gust
km/h
Spd
kts
Gust
kts
23/05:30pm 13.5 12.3 10.2 80 1.7 SW 7 11 4 6 1022.3 - 0.0
23/05:00pm 15.5 12.7 9.9 69 2.9 SSE 15 20 8 11 1021.8 - 0.0
23/04:30pm 16.6 13.9 9.0 61 3.9 SSE 13 19 7 10 1021.4 - 0.0
23/04:00pm 16.6 13.3 9.5 63 3.7 SSE 17 22 9 12 1021.5 - 0.0
23/03:30pm 17.4 13.8 9.8 61 4.0 SSE 19 28 10 15 1021.5 - 0.0
23/03:00pm 18.0 14.5 8.7 54 4.8 SSE 17 26 9 14 1021.5 1021.6 0.0
23/02:30pm 18.2 13.9 7.2 48 5.5 SSE 19 26 10 14 1021.4 - 0.0
23/02:00pm 18.2 14.0 8.2 52 5.1 S 20 26 11 14 1021.5 - 0.0
23/01:30pm 18.3 13.6 7.9 50 5.3 SSE 22 28 12 15 1021.6 - 0.0
23/01:00pm 18.2 13.9 8.0 51 5.2 S 20 28 11 15 1021.8 - 0.0
23/12:30pm 18.4 13.5 8.5 52 5.1 S 24 30 13 16 1022.3 - 0.0
23/12:00pm 18.3 13.4 8.6 53 5.0 S 24 32 13 17 1023.1 1023.2 0.0
23/11:30am 17.6 12.9 7.9 53 4.9 S 22 28 12 15 1023.4 - 0.0
23/11:00am 18.1 13.5 8.1 52 5.1 S 22 30 12 16 1023.9 - 0.0
23/10:30am 17.1 12.7 7.5 53 4.8 SW 20 28 11 15 1024.3 - 0.0
23/10:00am 16.7 11.6 7.7 55 4.5 SW 24 32 13 17 1024.4 - 0.0
23/09:30am 16.4 12.3 7.8 56 4.3 SW 19 26 10 14 1024.3 - 0.0
23/09:00am 15.9 11.8 7.9 59 4.0 SW 19 28 10 15 1024.0 1024.1 0.0
23/08:30am 14.8 10.8 8.2 64 3.3 WSW 19 24 10 13 1023.8 - 0.0
23/08:00am 13.2 9.5 7.9 70 2.6 WSW 17 20 9 11 1023.5 - 0.0
23/07:30am 11.7 8.7 7.8 77 1.9 SW 13 19 7 10 1023.3 - 0.0
23/07:00am 10.5 7.8 7.3 80 1.5 SW 11 15 6 8 1023.2 - 0.0
23/06:30am 10.6 6.8 7.5 81 1.5 WSW 17 24 9 13 1022.9 - 0.0
23/06:00am 10.6 6.7 7.2 79 1.6 WSW 17 20 9 11 1022.4 1022.5 0.0
23/05:30am 10.5 7.0 7.3 80 1.5 SW 15 20 8 11 1022.3 - 0.0
23/05:00am 10.0 6.9 7.2 83 1.3 SW 13 15 7 8 1022.2 - 0.0
23/04:30am 10.4 7.0 7.5 82 1.4 SW 15 19 8 10 1021.8 - 0.0
23/04:00am 10.0 6.2 7.5 84 1.2 WSW 17 24 9 13 1021.6 - 0.0
23/03:30am 10.0 6.6 7.5 84 1.2 SW 15 17 8 9 1021.6 - 0.0
23/03:00am 10.5 7.5 7.6 82 1.4 WSW 13 19 7 10 1021.8 1021.9 0.0
23/02:30am 10.9 7.9 7.6 80 1.6 SW 13 19 7 10 1021.9 - 0.0
23/02:00am 11.3 8.3 7.6 78 1.8 SW 13 19 7 10 1022.1 - 0.0
23/01:30am 11.3 7.5 7.6 78 1.8 WSW 17 24 9 13 1022.3 - 0.0
23/01:00am 11.5 7.7 7.6 77 1.9 SW 17 22 9 12 1022.3 - 0.0
23/12:30am 11.9 8.1 7.5 74 2.1 SW 17 24 9 13 1022.4 - 0.0
23/12:00am 12.3 8.5 7.5 72 2.3 WSW 17 22 9 12 1022.6 1022.7 0.0
 
Date/Time
EST
Temp
°C
App
Temp
°C
Dew
Point
Rel
Hum
%
Delta-T
°C
Wind Press
QNH
hPa
Press
MSL
hPa
Rain
since 9 am
mm
Dir
 
Spd
km/h
Gust
km/h
Spd
kts
Gust
kts
22/11:30pm 13.0 9.1 7.2 68 2.8 WSW 17 19 9 10 1022.5 - 0.0
22/11:00pm 12.5 8.2 7.8 73 2.3 WSW 20 26 11 14 1022.5 - 0.0
22/10:30pm 12.4 8.2 8.1 75 2.1 WSW 20 28 11 15 1022.3 - 0.0
22/10:00pm 12.3 8.7 8.4 77 1.9 SW 17 22 9 12 1022.6 - 0.0
22/09:30pm 12.4 8.5 8.8 79 1.8 WSW 19 26 10 14 1022.8 - 0.0
22/09:00pm 12.2 8.4 9.0 81 1.6 SW 19 26 10 14 1022.9 1023.0 0.0
22/08:30pm 12.7 9.2 8.7 76 2.0 SW 17 19 9 10 1022.8 - 0.0
22/08:00pm 13.0 10.1 8.3 73 2.3 WSW 13 17 7 9 1022.7 - 0.0
22/07:30pm 13.5 9.6 8.5 72 2.5 WSW 19 24 10 13 1022.4 - 0.0
22/07:00pm 12.8 8.5 9.4 80 1.7 WSW 22 28 12 15 1022.3 - 0.0
22/06:30pm 12.6 9.4 9.9 83 1.4 SW 17 26 9 14 1022.3 - 0.0
22/06:00pm 12.9 10.9 10.2 84 1.4 WSW 11 15 6 8 1022.0 1022.1 0.0
22/05:30pm 13.5 11.2 10.4 81 1.6 WSW 13 17 7 9 1021.7 - 0.0
22/05:00pm 14.4 12.3 11.2 81 1.7 WSW 13 19 7 10 1021.4 - 0.0
22/04:30pm 15.1 13.5 11.6 79 1.9 WSW 11 15 6 8 1021.4 - 0.0
22/04:00pm 15.9 12.9 10.6 71 2.8 S 17 24 9 13 1021.1 - 0.0
22/03:30pm 15.6 13.2 11.3 75 2.3 SSW 15 20 8 11 1021.1 - 0.0
22/03:00pm 16.6 13.3 10.8 68 3.1 SSE 19 30 10 16 1020.8 1020.9 0.0
22/02:30pm 17.1 14.0 10.3 64 3.6 SSE 17 24 9 13 1020.6 - 0.0
22/02:00pm 17.0 14.0 10.6 66 3.4 SSE 17 24 9 13 1020.7 - 0.0
22/01:30pm 17.2 13.6 10.4 64 3.6 S 20 28 11 15 1020.7 - 0.0
22/01:00pm 18.2 13.4 8.9 54 4.8 S 24 30 13 16 1020.7 - 0.0
22/12:30pm 17.7 13.8 9.5 58 4.3 S 20 26 11 14 1021.1 - 0.0
22/12:00pm 18.1 14.5 10.0 59 4.3 S 19 26 10 14 1021.8 1021.9 0.0
22/11:30am 17.9 14.6 9.5 58 4.4 S 17 24 9 13 1022.4 - 0.0
22/11:00am 17.7 14.0 9.5 58 4.3 S 19 26 10 14 1022.9 - 0.0
22/10:30am 17.3 13.6 9.6 60 4.0 S 19 26 10 14 1023.0 - 0.0
22/10:00am 16.6 13.5 10.3 66 3.3 SW 17 26 9 14 1023.3 - 0.0
22/09:30am 16.2 14.0 10.9 71 2.8 SW 13 19 7 10 1023.5 - 0.0
22/09:00am 15.0 13.0 11.6 80 1.8 SW 13 15 7 8 1023.4 1023.5 3.2
22/08:30am 13.7 12.6 12.0 89 0.9 W 9 11 5 6 1023.3 - 3.2
22/08:00am 12.3 11.6 11.5 95 0.4 W 6 7 3 4 1023.2 - 3.2
22/07:30am 10.4 10.4 9.8 96 0.3 CALM 0 0 0 0 1023.0 - 3.2
22/07:15am 9.3 8.3 8.7 96 0.3 W 4 7 2 4 1022.8 - 3.2
22/07:00am 9.3 7.9 8.9 97 0.2 WSW 6 7 3 4 1022.6 - 3.2
22/06:44am 9.7 8.2 9.3 97 0.2 WNW 7 9 4 5 1022.5 - 3.2
22/06:30am 9.9 8.5 9.5 97 0.2 WSW 7 9 4 5 1022.5 - 3.2
22/06:26am 10.0 8.2 9.6 97 0.2 WSW 9 11 5 6 1022.4 - 3.2
22/06:08am 9.6 8.1 9.0 96 0.3 WSW 7 9 4 5 1022.4 - 3.2
22/06:02am 9.6 8.1 9.0 96 0.3 WSW 7 9 4 5 1022.4 - 3.2
22/06:00am 9.6 8.1 9.0 96 0.3 WSW 7 9 4 5 1022.3 1022.4 3.2
22/05:42am 10.1 8.7 9.7 97 0.2 W 7 9 4 5 1022.0 - 3.2
22/05:30am 10.5 10.6 10.1 97 0.2 CALM 0 9 0 5 1021.9 - 3.2
22/05:21am 10.6 10.7 10.0 96 0.3 CALM 0 0 0 0 1021.7 - 3.2
22/05:00am 11.0 9.5 10.6 97 0.2 W 9 11 5 6 1021.7 - 3.2
22/04:58am 11.0 9.6 10.8 99 0.1 W 9 13 5 7 1021.7 - 3.2
22/04:30am 11.3 9.1 10.9 97 0.2 W 13 17 7 9 1021.6 - 3.2
22/04:00am 11.3 9.1 10.9 97 0.2 WSW 13 17 7 9 1021.7 - 3.2
22/03:30am 11.6 10.2 11.0 96 0.3 WSW 9 13 5 7 1021.6 - 3.2
22/03:00am 11.9 10.2 11.3 96 0.3 WSW 11 15 6 8 1021.8 1021.9 3.2
22/02:30am 12.0 9.5 11.2 95 0.4 SW 15 17 8 9 1022.0 - 3.2
22/02:00am 12.0 10.0 11.4 96 0.3 SW 13 15 7 8 1022.0 - 3.0
22/01:30am 12.2 9.8 11.4 95 0.4 SW 15 19 8 10 1022.2 - 3.0
22/01:00am 12.1 10.0 11.3 95 0.4 WSW 13 17 7 9 1022.5 - 3.0
22/12:30am 12.2 11.0 11.6 96 0.3 W 9 13 5 7 1022.5 - 3.0
22/12:00am 12.4 11.2 11.6 95 0.4 SW 9 13 5 7 1022.7 1022.8 3.0
 
Date/Time
EST
Temp
°C
App
Temp
°C
Dew
Point
Rel
Hum
%
Delta-T
°C
Wind Press
QNH
hPa
Press
MSL
hPa
Rain
since 9 am
mm
Dir
 
Spd
km/h
Gust
km/h
Spd
kts
Gust
kts
21/11:42pm 12.3 10.7 11.7 96 0.3 WSW 11 15 6 8 1022.9 - 3.0
21/11:30pm 12.3 11.5 11.7 96 0.3 SW 7 9 4 5 1023.0 - 3.0
21/11:00pm 12.4 12.9 11.6 95 0.4 CALM 0 2 0 1 1023.2 - 3.0
21/10:33pm 12.5 12.3 11.9 96 0.3 WNW 4 7 2 4 1023.4 - 3.0
21/10:31pm 12.5 12.7 11.9 96 0.3 NW 2 7 1 4 1023.4 - 3.0
21/10:30pm 12.5 12.7 11.7 95 0.4 NW 2 7 1 4 1023.4 - 3.0
21/10:00pm 12.5 13.1 11.9 96 0.3 CALM 0 0 0 0 1023.4 - 3.0
21/09:30pm 12.6 12.5 12.0 96 0.3 NW 4 6 2 3 1023.4 - 3.0
21/09:22pm 12.7 12.2 12.1 96 0.3 NW 6 7 3 4 1023.4 - 3.0
21/09:00pm 12.7 13.0 12.1 96 0.3 WNW 2 7 1 4 1023.7 1023.8 3.0
21/08:53pm 12.7 13.4 12.1 96 0.3 CALM 0 4 0 2 1023.7 - 3.0
21/08:30pm 12.6 11.9 12.0 96 0.3 W 7 11 4 6 1023.7 - 3.0
21/08:00pm 12.5 13.1 11.9 96 0.3 CALM 0 0 0 0 1023.6 - 3.0
21/07:59pm 12.5 13.1 11.9 96 0.3 CALM 0 0 0 0 1023.7 - 3.0
21/07:37pm 12.6 13.3 12.2 97 0.2 CALM 0 0 0 0 1023.4 - 3.0
21/07:30pm 12.6 13.2 12.0 96 0.3 CALM 0 0 0 0 1023.4 - 3.0
21/07:18pm 12.6 13.2 12.0 96 0.3 CALM 0 0 0 0 1023.5 - 3.0
21/07:16pm 12.6 13.2 12.0 96 0.3 CALM 0 0 0 0 1023.4 - 3.0
21/07:00pm 12.8 13.1 12.2 96 0.3 W 2 7 1 4 1023.3 - 3.0
21/06:56pm 12.8 12.7 12.2 96 0.3 W 4 7 2 4 1023.4 - 3.0
21/06:30pm 13.2 12.7 12.6 96 0.3 W 7 11 4 6 1023.3 - 3.0
21/06:00pm 13.5 12.3 12.9 96 0.3 WNW 11 13 6 7 1023.3 1023.4 3.0
21/05:30pm 13.5 12.3 12.9 96 0.3 WNW 11 15 6 8 1023.1 - 3.0
21/05:23pm 13.4 12.6 12.8 96 0.3 W 9 11 5 6 1023.0 - 3.0
21/05:11pm 13.5 13.0 12.8 95 0.4 SSW 7 11 4 6 1023.1 - 3.0
21/05:01pm 13.7 12.7 12.4 92 0.7 S 9 15 5 8 1023.1 - 2.8
21/05:00pm 13.7 12.7 12.4 92 0.7 S 9 17 5 9 1023.1 - 2.8
21/04:51pm 13.7 12.0 12.4 92 0.7 SSE 13 17 7 9 1023.0 - 2.6
21/04:38pm 13.9 12.0 13.0 94 0.5 SE 15 19 8 10 1022.9 - 2.2
21/04:30pm 13.8 11.8 12.7 93 0.6 ESE 15 19 8 10 1022.9 - 1.8
21/04:00pm 14.0 10.5 12.3 89 0.9 ESE 22 30 12 16 1022.7 - 0.6
21/03:54pm 14.1 10.3 12.4 89 0.9 ESE 24 30 13 16 1022.6 - 0.6
21/03:30pm 16.3 12.9 10.4 68 3.1 S 19 26 10 14 1022.4 - 0.0
21/03:00pm 16.7 13.0 10.0 64 3.5 SSW 20 28 11 15 1022.2 1022.3 0.0
21/02:30pm 16.5 12.9 10.4 67 3.2 S 20 28 11 15 1022.1 - 0.0
21/02:00pm 17.0 14.9 11.2 68 3.1 SSW 13 17 7 9 1022.2 - 0.0
21/01:30pm 15.6 13.3 10.5 71 2.7 SSW 13 17 7 9 1022.4 - 0.0
21/01:00pm 16.1 13.6 11.2 72 2.6 SW 15 22 8 12 1022.7 - 0.0
21/12:30pm 15.9 12.6 11.0 72 2.6 WSW 19 26 10 14 1023.0 - 0.0
21/12:00pm 16.5 12.3 9.8 64 3.5 SW 22 28 12 15 1023.7 1023.8 0.0
21/11:30am 16.4 12.6 9.2 62 3.7 SW 19 26 10 14 1024.1 - 0.0
21/11:00am 16.1 11.7 8.8 62 3.7 WSW 22 30 12 16 1024.6 - 0.0
21/10:30am 16.4 12.0 9.0 61 3.8 WSW 22 32 12 17 1024.9 - 0.0
21/10:00am 15.5 11.2 9.2 66 3.2 WSW 22 33 12 18 1025.0 - 0.0
21/09:30am 15.4 11.2 9.6 68 3.0 SW 22 33 12 18 1025.1 - 0.0
21/09:00am 14.8 10.9 9.3 69 2.8 WSW 20 28 11 15 1025.2 1025.3 0.0
21/08:30am 14.8 10.2 9.5 70 2.7 SW 24 32 13 17 1025.0 - 0.0
21/08:00am 14.6 10.9 9.3 70 2.7 SW 19 26 10 14 1024.8 - 0.0
21/07:30am 14.4 10.0 9.1 70 2.7 SW 22 30 12 16 1024.5 - 0.0
21/07:00am 14.1 9.7 8.9 71 2.6 WSW 22 30 12 16 1024.3 - 0.0
21/06:30am 14.1 10.2 8.7 70 2.7 SW 19 28 10 15 1024.1 - 0.0
21/06:00am 13.9 10.1 9.2 73 2.4 SW 19 30 10 16 1023.8 1023.9 0.0
21/05:30am 13.6 10.3 9.5 76 2.1 SW 17 26 9 14 1023.5 - 0.0
21/05:00am 13.1 9.5 9.8 80 1.7 WSW 19 28 10 15 1023.2 - 0.0
21/04:30am 13.4 9.6 9.7 78 1.9 SW 20 28 11 15 1023.1 - 0.0
21/04:00am 13.6 8.6 9.7 77 2.0 SW 26 35 14 19 1023.0 - 0.0
21/03:30am 13.6 9.4 9.9 78 1.9 SW 22 30 12 16 1023.0 - 0.0
21/03:00am 13.5 9.3 9.8 78 1.9 SW 22 30 12 16 1023.0 1023.1 0.0
21/02:30am 13.7 9.9 9.8 77 2.0 SW 20 30 11 16 1022.9 - 0.0
21/02:00am 13.7 9.2 10.0 78 1.9 SW 24 33 13 18 1023.0 - 0.0
21/01:30am 13.6 9.8 9.9 78 1.9 WSW 20 32 11 17 1023.3 - 0.0
21/01:00am 13.7 10.0 10.0 78 1.9 WSW 20 28 11 15 1023.5 - 0.0
21/12:30am 13.5 10.0 10.2 80 1.7 WSW 19 28 10 15 1023.5 - 0.0
21/12:00am 13.7 10.1 9.8 77 2.0 WSW 19 26 10 14 1023.3 1023.4 0.0
 
Date/Time
EST
Temp
°C
App
Temp
°C
Dew
Point
Rel
Hum
%
Delta-T
°C
Wind Press
QNH
hPa
Press
MSL
hPa
Rain
since 9 am
mm
Dir
 
Spd
km/h
Gust
km/h
Spd
kts
Gust
kts
20/11:30pm 14.3 8.5 9.4 72 2.5 SW 30 39 16 21 1023.4 - 0.0
20/11:00pm 14.7 9.5 9.0 68 2.9 SW 26 32 14 17 1023.6 - 0.0
20/10:30pm 14.6 10.1 8.6 67 3.0 SW 22 30 12 16 1023.7 - 0.0
20/10:00pm 14.5 9.7 8.7 68 2.9 SW 24 32 13 17 1023.4 - 0.0
20/09:30pm 14.7 9.5 9.0 68 2.9 SW 26 33 14 18 1023.4 - 0.0
20/09:00pm 14.6 10.6 9.1 69 2.8 SW 20 28 11 15 1023.4 1023.5 0.0
20/08:30pm 14.4 10.0 9.1 70 2.7 SW 22 32 12 17 1023.1 - 0.0
20/08:00pm 14.6 9.6 9.5 71 2.6 SW 26 37 14 20 1023.1 - 0.0
20/07:30pm 15.2 9.4 9.6 69 2.9 SW 30 39 16 21 1023.1 - 0.0
20/07:00pm 15.5 10.0 9.3 66 3.2 SSW 28 35 15 19 1022.9 - 0.0
20/06:30pm 15.8 10.8 9.4 65 3.3 SSW 26 35 14 19 1022.5 - 0.0
20/06:00pm 15.8 10.8 9.4 65 3.3 SSW 26 33 14 18 1022.3 1022.4 0.0

Other Formats:

Comma delimited format used in spreadsheet applications
http://www.bom.gov.au/fwo/IDN60801/IDN60801.94791.axf

JavaScript Object Notation format (JSON) in row-major order
http://www.bom.gov.au/fwo/IDN60801/IDN60801.94791.json